sensor_id;sensor_type;location;lat;lon;timestamp;P1;durP1;ratioP1;P2;durP2;ratioP2
46721;SDS011;32455;43.430;23.136;2023-09-30T00:01:22;7.65;;;7.35;;
46721;SDS011;32455;43.430;23.136;2023-09-30T00:04:07;8.35;;;8.02;;
46721;SDS011;32455;43.430;23.136;2023-09-30T00:06:53;9.30;;;8.90;;
46721;SDS011;32455;43.430;23.136;2023-09-30T00:09:39;8.07;;;7.78;;
46721;SDS011;32455;43.430;23.136;2023-09-30T00:12:25;9.20;;;8.80;;
46721;SDS011;32455;43.430;23.136;2023-09-30T00:15:11;8.25;;;7.90;;
46721;SDS011;32455;43.430;23.136;2023-09-30T00:17:56;7.82;;;7.53;;
46721;SDS011;32455;43.430;23.136;2023-09-30T00:20:42;7.88;;;7.57;;
46721;SDS011;32455;43.430;23.136;2023-09-30T00:23:27;7.35;;;7.05;;
46721;SDS011;32455;43.430;23.136;2023-09-30T00:26:13;7.15;;;6.85;;
46721;SDS011;32455;43.430;23.136;2023-09-30T00:28:58;7.50;;;7.20;;
46721;SDS011;32455;43.430;23.136;2023-09-30T00:31:42;7.85;;;7.55;;
46721;SDS011;32455;43.430;23.136;2023-09-30T00:34:28;6.50;;;6.20;;
46721;SDS011;32455;43.430;23.136;2023-09-30T00:37:14;6.90;;;6.60;;
46721;SDS011;32455;43.430;23.136;2023-09-30T00:39:59;6.75;;;6.45;;
46721;SDS011;32455;43.430;23.136;2023-09-30T00:42:44;6.03;;;5.82;;
46721;SDS011;32455;43.430;23.136;2023-09-30T00:45:31;6.70;;;6.40;;
46721;SDS011;32455;43.430;23.136;2023-09-30T00:48:16;6.38;;;6.07;;
46721;SDS011;32455;43.430;23.136;2023-09-30T00:51:02;6.22;;;6.00;;
46721;SDS011;32455;43.430;23.136;2023-09-30T00:53:49;6.68;;;6.38;;
46721;SDS011;32455;43.430;23.136;2023-09-30T00:56:36;5.82;;;5.63;;
46721;SDS011;32455;43.430;23.136;2023-09-30T00:59:28;5.82;;;5.63;;
46721;SDS011;32455;43.430;23.136;2023-09-30T01:02:20;5.28;;;5.07;;
46721;SDS011;32455;43.430;23.136;2023-09-30T01:05:08;5.45;;;5.25;;
46721;SDS011;32455;43.430;23.136;2023-09-30T01:07:54;5.40;;;5.20;;
46721;SDS011;32455;43.430;23.136;2023-09-30T01:10:40;4.85;;;4.65;;
46721;SDS011;32455;43.430;23.136;2023-09-30T01:13:31;4.85;;;4.65;;
46721;SDS011;32455;43.430;23.136;2023-09-30T01:16:21;4.68;;;4.47;;
46721;SDS011;32455;43.430;23.136;2023-09-30T01:19:07;5.88;;;5.68;;
46721;SDS011;32455;43.430;23.136;2023-09-30T01:22:01;4.35;;;4.18;;
46721;SDS011;32455;43.430;23.136;2023-09-30T01:24:49;5.28;;;5.07;;
46721;SDS011;32455;43.430;23.136;2023-09-30T01:27:36;5.22;;;5.03;;
46721;SDS011;32455;43.430;23.136;2023-09-30T01:30:21;5.68;;;5.47;;
46721;SDS011;32455;43.430;23.136;2023-09-30T01:33:08;6.05;;;5.82;;
46721;SDS011;32455;43.430;23.136;2023-09-30T01:35:53;5.45;;;5.25;;
46721;SDS011;32455;43.430;23.136;2023-09-30T01:38:39;7.07;;;6.78;;
46721;SDS011;32455;43.430;23.136;2023-09-30T01:41:24;5.85;;;5.65;;
46721;SDS011;32455;43.430;23.136;2023-09-30T01:44:09;5.32;;;5.13;;
46721;SDS011;32455;43.430;23.136;2023-09-30T01:46:55;5.97;;;5.78;;
46721;SDS011;32455;43.430;23.136;2023-09-30T01:49:40;6.30;;;6.05;;
46721;SDS011;32455;43.430;23.136;2023-09-30T01:52:26;5.75;;;5.55;;
46721;SDS011;32455;43.430;23.136;2023-09-30T01:55:12;5.45;;;5.25;;
46721;SDS011;32455;43.430;23.136;2023-09-30T01:57:57;5.55;;;5.35;;
46721;SDS011;32455;43.430;23.136;2023-09-30T02:00:43;5.53;;;5.32;;
46721;SDS011;32455;43.430;23.136;2023-09-30T02:03:28;5.50;;;5.30;;
46721;SDS011;32455;43.430;23.136;2023-09-30T02:06:14;5.20;;;5.00;;
46721;SDS011;32455;43.430;23.136;2023-09-30T02:09:00;5.55;;;5.35;;
46721;SDS011;32455;43.430;23.136;2023-09-30T02:11:45;4.72;;;4.53;;
46721;SDS011;32455;43.430;23.136;2023-09-30T02:14:31;5.20;;;5.00;;
46721;SDS011;32455;43.430;23.136;2023-09-30T02:17:16;5.65;;;5.45;;
46721;SDS011;32455;43.430;23.136;2023-09-30T02:20:02;4.40;;;4.22;;
46721;SDS011;32455;43.430;23.136;2023-09-30T02:22:52;5.22;;;5.03;;
46721;SDS011;32455;43.430;23.136;2023-09-30T02:25:37;4.93;;;4.72;;
46721;SDS011;32455;43.430;23.136;2023-09-30T02:28:23;5.35;;;5.15;;
46721;SDS011;32455;43.430;23.136;2023-09-30T02:31:08;5.80;;;5.60;;
46721;SDS011;32455;43.430;23.136;2023-09-30T02:33:53;5.30;;;5.10;;
46721;SDS011;32455;43.430;23.136;2023-09-30T02:36:38;6.50;;;6.20;;
46721;SDS011;32455;43.430;23.136;2023-09-30T02:39:23;6.18;;;5.97;;
46721;SDS011;32455;43.430;23.136;2023-09-30T02:42:08;5.50;;;5.30;;
46721;SDS011;32455;43.430;23.136;2023-09-30T02:44:54;6.95;;;6.65;;
46721;SDS011;32455;43.430;23.136;2023-09-30T02:47:39;7.13;;;6.82;;
46721;SDS011;32455;43.430;23.136;2023-09-30T02:50:24;8.27;;;7.93;;
46721;SDS011;32455;43.430;23.136;2023-09-30T02:53:10;7.90;;;7.60;;
46721;SDS011;32455;43.430;23.136;2023-09-30T02:55:57;8.82;;;8.43;;
46721;SDS011;32455;43.430;23.136;2023-09-30T02:58:45;10.25;;;9.80;;
46721;SDS011;32455;43.430;23.136;2023-09-30T03:01:30;9.70;;;9.30;;
46721;SDS011;32455;43.430;23.136;2023-09-30T03:04:16;11.43;;;10.93;;
46721;SDS011;32455;43.430;23.136;2023-09-30T03:07:04;11.15;;;10.65;;
46721;SDS011;32455;43.430;23.136;2023-09-30T03:09:50;13.05;;;12.45;;
46721;SDS011;32455;43.430;23.136;2023-09-30T03:12:37;12.73;;;12.13;;
46721;SDS011;32455;43.430;23.136;2023-09-30T03:15:23;14.63;;;13.93;;
46721;SDS011;32455;43.430;23.136;2023-09-30T03:18:08;13.63;;;13.02;;
46721;SDS011;32455;43.430;23.136;2023-09-30T03:20:58;12.57;;;11.98;;
46721;SDS011;32455;43.430;23.136;2023-09-30T03:23:53;14.55;;;13.85;;
46721;SDS011;32455;43.430;23.136;2023-09-30T03:26:38;12.65;;;12.05;;
46721;SDS011;32455;43.430;23.136;2023-09-30T03:29:26;10.85;;;10.35;;
46721;SDS011;32455;43.430;23.136;2023-09-30T03:32:11;9.43;;;9.02;;
46721;SDS011;32455;43.430;23.136;2023-09-30T03:34:56;9.52;;;9.13;;
46721;SDS011;32455;43.430;23.136;2023-09-30T03:37:46;8.45;;;8.07;;
46721;SDS011;32455;43.430;23.136;2023-09-30T03:40:31;8.93;;;8.52;;
46721;SDS011;32455;43.430;23.136;2023-09-30T03:43:18;8.00;;;7.70;;
46721;SDS011;32455;43.430;23.136;2023-09-30T03:46:04;7.53;;;7.22;;
46721;SDS011;32455;43.430;23.136;2023-09-30T03:48:49;6.50;;;6.20;;
46721;SDS011;32455;43.430;23.136;2023-09-30T03:51:35;6.78;;;6.47;;
46721;SDS011;32455;43.430;23.136;2023-09-30T03:54:21;5.85;;;5.63;;
46721;SDS011;32455;43.430;23.136;2023-09-30T03:57:08;5.63;;;5.43;;
46721;SDS011;32455;43.430;23.136;2023-09-30T03:59:53;5.80;;;5.60;;
46721;SDS011;32455;43.430;23.136;2023-09-30T04:02:38;5.43;;;5.22;;
46721;SDS011;32455;43.430;23.136;2023-09-30T04:05:24;2.90;;;2.80;;
46721;SDS011;32455;43.430;23.136;2023-09-30T04:08:13;2.70;;;2.60;;
46721;SDS011;32455;43.430;23.136;2023-09-30T04:11:00;5.32;;;5.13;;
46721;SDS011;32455;43.430;23.136;2023-09-30T04:13:45;5.53;;;5.32;;
46721;SDS011;32455;43.430;23.136;2023-09-30T04:16:31;5.05;;;4.85;;
46721;SDS011;32455;43.430;23.136;2023-09-30T04:19:16;2.95;;;2.85;;
46721;SDS011;32455;43.430;23.136;2023-09-30T04:22:02;4.70;;;4.50;;
46721;SDS011;32455;43.430;23.136;2023-09-30T04:24:46;5.28;;;5.07;;
46721;SDS011;32455;43.430;23.136;2023-09-30T04:27:30;5.72;;;5.53;;
46721;SDS011;32455;43.430;23.136;2023-09-30T04:30:16;5.68;;;5.47;;
46721;SDS011;32455;43.430;23.136;2023-09-30T04:33:02;5.65;;;5.45;;
46721;SDS011;32455;43.430;23.136;2023-09-30T04:35:50;6.05;;;5.82;;
46721;SDS011;32455;43.430;23.136;2023-09-30T04:38:37;6.78;;;6.47;;
46721;SDS011;32455;43.430;23.136;2023-09-30T04:41:23;7.38;;;7.07;;
46721;SDS011;32455;43.430;23.136;2023-09-30T04:44:10;7.55;;;7.25;;
46721;SDS011;32455;43.430;23.136;2023-09-30T04:46:55;8.52;;;8.15;;
46721;SDS011;32455;43.430;23.136;2023-09-30T04:49:41;12.15;;;11.57;;
46721;SDS011;32455;43.430;23.136;2023-09-30T04:52:28;12.35;;;11.80;;
46721;SDS011;32455;43.430;23.136;2023-09-30T04:55:15;13.93;;;13.27;;
46721;SDS011;32455;43.430;23.136;2023-09-30T04:58:01;13.73;;;13.10;;
46721;SDS011;32455;43.430;23.136;2023-09-30T05:00:46;19.25;;;18.35;;
46721;SDS011;32455;43.430;23.136;2023-09-30T05:03:31;19.92;;;19.00;;
46721;SDS011;32455;43.430;23.136;2023-09-30T05:06:16;20.65;;;19.67;;
46721;SDS011;32455;43.430;23.136;2023-09-30T05:09:01;20.40;;;19.45;;
46721;SDS011;32455;43.430;23.136;2023-09-30T05:11:47;21.40;;;20.40;;
46721;SDS011;32455;43.430;23.136;2023-09-30T05:14:35;21.85;;;20.85;;
46721;SDS011;32455;43.430;23.136;2023-09-30T05:17:24;22.58;;;21.50;;
46721;SDS011;32455;43.430;23.136;2023-09-30T05:20:10;22.20;;;21.20;;
46721;SDS011;32455;43.430;23.136;2023-09-30T05:22:57;22.02;;;21.02;;
46721;SDS011;32455;43.430;23.136;2023-09-30T05:25:43;21.83;;;20.83;;
46721;SDS011;32455;43.430;23.136;2023-09-30T05:28:28;24.95;;;23.75;;
46721;SDS011;32455;43.430;23.136;2023-09-30T05:31:13;22.35;;;21.27;;
46721;SDS011;32455;43.430;23.136;2023-09-30T05:33:59;24.80;;;23.63;;
46721;SDS011;32455;43.430;23.136;2023-09-30T05:36:44;21.95;;;20.95;;
46721;SDS011;32455;43.430;23.136;2023-09-30T05:39:29;22.60;;;21.52;;
46721;SDS011;32455;43.430;23.136;2023-09-30T05:42:16;21.60;;;20.58;;
46721;SDS011;32455;43.430;23.136;2023-09-30T05:45:03;18.27;;;17.42;;
46721;SDS011;32455;43.430;23.136;2023-09-30T05:47:51;16.77;;;15.98;;
46721;SDS011;32455;43.430;23.136;2023-09-30T05:50:37;11.63;;;11.13;;
46721;SDS011;32455;43.430;23.136;2023-09-30T05:53:23;7.43;;;7.13;;
46721;SDS011;32455;43.430;23.136;2023-09-30T05:56:10;6.90;;;6.60;;
46721;SDS011;32455;43.430;23.136;2023-09-30T05:58:56;5.90;;;5.70;;
46721;SDS011;32455;43.430;23.136;2023-09-30T06:01:42;5.85;;;5.65;;
46721;SDS011;32455;43.430;23.136;2023-09-30T06:04:26;5.45;;;5.25;;
46721;SDS011;32455;43.430;23.136;2023-09-30T06:07:15;7.60;;;7.30;;
46721;SDS011;32455;43.430;23.136;2023-09-30T06:10:02;11.40;;;10.90;;
46721;SDS011;32455;43.430;23.136;2023-09-30T06:12:48;20.10;;;19.13;;
46721;SDS011;32455;43.430;23.136;2023-09-30T06:15:42;22.05;;;21.00;;
46721;SDS011;32455;43.430;23.136;2023-09-30T06:18:28;12.73;;;12.13;;
46721;SDS011;32455;43.430;23.136;2023-09-30T06:21:13;10.50;;;10.00;;
46721;SDS011;32455;43.430;23.136;2023-09-30T06:24:05;16.95;;;16.17;;
46721;SDS011;32455;43.430;23.136;2023-09-30T06:26:51;25.90;;;24.60;;
46721;SDS011;32455;43.430;23.136;2023-09-30T06:29:36;26.27;;;24.98;;
46721;SDS011;32455;43.430;23.136;2023-09-30T06:32:22;19.40;;;18.45;;
46721;SDS011;32455;43.430;23.136;2023-09-30T06:35:08;18.33;;;17.42;;
46721;SDS011;32455;43.430;23.136;2023-09-30T06:37:56;17.92;;;17.05;;
46721;SDS011;32455;43.430;23.136;2023-09-30T06:40:41;19.63;;;18.70;;
46721;SDS011;32455;43.430;23.136;2023-09-30T06:43:27;26.02;;;24.73;;
46721;SDS011;32455;43.430;23.136;2023-09-30T06:46:13;22.20;;;21.13;;
46721;SDS011;32455;43.430;23.136;2023-09-30T06:48:58;20.13;;;19.15;;
46721;SDS011;32455;43.430;23.136;2023-09-30T06:51:44;14.43;;;13.75;;
46721;SDS011;32455;43.430;23.136;2023-09-30T06:54:30;16.20;;;15.45;;
46721;SDS011;32455;43.430;23.136;2023-09-30T06:57:16;19.27;;;18.35;;
46721;SDS011;32455;43.430;23.136;2023-09-30T07:00:01;18.90;;;17.98;;
46721;SDS011;32455;43.430;23.136;2023-09-30T07:02:56;21.73;;;20.63;;
46721;SDS011;32455;43.430;23.136;2023-09-30T07:05:43;24.33;;;23.13;;
46721;SDS011;32455;43.430;23.136;2023-09-30T07:08:28;22.13;;;21.02;;
46721;SDS011;32455;43.430;23.136;2023-09-30T07:11:14;23.17;;;22.08;;
46721;SDS011;32455;43.430;23.136;2023-09-30T07:14:00;20.90;;;19.90;;
46721;SDS011;32455;43.430;23.136;2023-09-30T07:16:46;21.13;;;20.13;;
46721;SDS011;32455;43.430;23.136;2023-09-30T07:19:35;17.23;;;16.42;;
46721;SDS011;32455;43.430;23.136;2023-09-30T07:22:20;17.80;;;17.00;;
46721;SDS011;32455;43.430;23.136;2023-09-30T07:25:06;18.98;;;18.08;;
46721;SDS011;32455;43.430;23.136;2023-09-30T07:27:52;21.95;;;20.90;;
46721;SDS011;32455;43.430;23.136;2023-09-30T07:30:38;26.55;;;25.25;;
46721;SDS011;32455;43.430;23.136;2023-09-30T07:33:24;28.60;;;27.17;;
46721;SDS011;32455;43.430;23.136;2023-09-30T07:36:08;30.67;;;29.17;;
46721;SDS011;32455;43.430;23.136;2023-09-30T07:38:54;34.47;;;32.75;;
46721;SDS011;32455;43.430;23.136;2023-09-30T07:41:40;34.22;;;32.47;;
46721;SDS011;32455;43.430;23.136;2023-09-30T07:44:26;30.05;;;28.55;;
46721;SDS011;32455;43.430;23.136;2023-09-30T07:47:11;31.92;;;30.35;;
46721;SDS011;32455;43.430;23.136;2023-09-30T07:49:56;33.92;;;32.22;;
46721;SDS011;32455;43.430;23.136;2023-09-30T07:52:42;33.00;;;31.40;;
46721;SDS011;32455;43.430;23.136;2023-09-30T07:55:27;32.88;;;31.27;;
46721;SDS011;32455;43.430;23.136;2023-09-30T07:58:13;31.45;;;29.95;;
46721;SDS011;32455;43.430;23.136;2023-09-30T08:00:58;32.65;;;31.05;;
46721;SDS011;32455;43.430;23.136;2023-09-30T08:03:42;31.95;;;30.38;;
46721;SDS011;32455;43.430;23.136;2023-09-30T08:06:28;29.20;;;27.80;;
46721;SDS011;32455;43.430;23.136;2023-09-30T08:09:13;28.25;;;26.85;;
46721;SDS011;32455;43.430;23.136;2023-09-30T08:11:59;28.02;;;26.65;;
46721;SDS011;32455;43.430;23.136;2023-09-30T08:14:44;29.60;;;28.15;;
46721;SDS011;32455;43.430;23.136;2023-09-30T08:17:30;31.05;;;29.55;;
46721;SDS011;32455;43.430;23.136;2023-09-30T08:20:15;28.33;;;26.92;;
46721;SDS011;32455;43.430;23.136;2023-09-30T08:23:00;32.50;;;30.90;;
46721;SDS011;32455;43.430;23.136;2023-09-30T08:25:46;32.97;;;31.33;;
46721;SDS011;32455;43.430;23.136;2023-09-30T08:28:31;39.45;;;37.45;;
46721;SDS011;32455;43.430;23.136;2023-09-30T08:31:17;37.75;;;35.85;;
46721;SDS011;32455;43.430;23.136;2023-09-30T08:34:02;39.47;;;37.47;;
46721;SDS011;32455;43.430;23.136;2023-09-30T08:36:48;43.28;;;41.08;;
46721;SDS011;32455;43.430;23.136;2023-09-30T08:39:37;41.92;;;39.80;;
46721;SDS011;32455;43.430;23.136;2023-09-30T08:42:24;42.95;;;40.75;;
46721;SDS011;32455;43.430;23.136;2023-09-30T08:45:17;42.88;;;40.67;;
46721;SDS011;32455;43.430;23.136;2023-09-30T08:48:03;40.35;;;38.30;;
46721;SDS011;32455;43.430;23.136;2023-09-30T08:50:50;40.83;;;38.72;;
46721;SDS011;32455;43.430;23.136;2023-09-30T08:53:37;42.83;;;40.63;;
46721;SDS011;32455;43.430;23.136;2023-09-30T08:56:26;40.60;;;38.55;;
46721;SDS011;32455;43.430;23.136;2023-09-30T08:59:13;41.40;;;39.30;;
46721;SDS011;32455;43.430;23.136;2023-09-30T09:01:59;38.25;;;36.33;;
46721;SDS011;32455;43.430;23.136;2023-09-30T09:04:45;38.38;;;36.47;;
46721;SDS011;32455;43.430;23.136;2023-09-30T09:07:31;34.47;;;32.78;;
46721;SDS011;32455;43.430;23.136;2023-09-30T09:10:16;33.78;;;32.13;;
46721;SDS011;32455;43.430;23.136;2023-09-30T09:13:03;34.08;;;32.40;;
46721;SDS011;32455;43.430;23.136;2023-09-30T09:15:49;38.42;;;36.53;;
46721;SDS011;32455;43.430;23.136;2023-09-30T09:18:34;37.13;;;35.33;;
46721;SDS011;32455;43.430;23.136;2023-09-30T09:21:23;39.65;;;37.70;;
46721;SDS011;32455;43.430;23.136;2023-09-30T09:24:11;36.95;;;35.15;;
46721;SDS011;32455;43.430;23.136;2023-09-30T09:27:15;29.52;;;28.08;;
46721;SDS011;32455;43.430;23.136;2023-09-30T09:33:07;0.90;;;0.90;;
46721;SDS011;32455;43.430;23.136;2023-09-30T09:35:52;1.05;;;1.05;;
46721;SDS011;32455;43.430;23.136;2023-09-30T09:38:50;1.42;;;1.42;;
46721;SDS011;32455;43.430;23.136;2023-09-30T09:44:46;2.13;;;2.03;;
46721;SDS011;32455;43.430;23.136;2023-09-30T09:47:32;1.30;;;1.30;;
46721;SDS011;32455;43.430;23.136;2023-09-30T09:50:18;1.10;;;1.10;;
46721;SDS011;32455;43.430;23.136;2023-09-30T09:53:07;1.40;;;1.40;;
46721;SDS011;32455;43.430;23.136;2023-09-30T09:55:53;2.28;;;2.17;;
46721;SDS011;32455;43.430;23.136;2023-09-30T09:58:39;1.33;;;1.33;;
46721;SDS011;32455;43.430;23.136;2023-09-30T10:01:28;1.45;;;1.45;;
46721;SDS011;32455;43.430;23.136;2023-09-30T10:04:14;1.38;;;1.38;;
46721;SDS011;32455;43.430;23.136;2023-09-30T10:06:59;1.88;;;1.77;;
46721;SDS011;32455;43.430;23.136;2023-09-30T10:09:47;1.27;;;1.27;;
46721;SDS011;32455;43.430;23.136;2023-09-30T10:12:38;1.10;;;1.10;;
46721;SDS011;32455;43.430;23.136;2023-09-30T10:18:12;0.90;;;0.90;;
46721;SDS011;32455;43.430;23.136;2023-09-30T10:20:58;1.08;;;1.08;;
46721;SDS011;32455;43.430;23.136;2023-09-30T10:24:23;0.95;;;0.95;;
46721;SDS011;32455;43.430;23.136;2023-09-30T10:30:09;0.85;;;0.85;;
46721;SDS011;32455;43.430;23.136;2023-09-30T10:35:46;1.50;;;1.50;;
46721;SDS011;32455;43.430;23.136;2023-09-30T10:38:41;1.67;;;1.67;;
46721;SDS011;32455;43.430;23.136;2023-09-30T10:53:44;1.40;;;1.40;;
46721;SDS011;32455;43.430;23.136;2023-09-30T10:56:34;1.30;;;1.30;;
46721;SDS011;32455;43.430;23.136;2023-09-30T10:59:20;1.77;;;1.77;;
46721;SDS011;32455;43.430;23.136;2023-09-30T11:02:20;1.70;;;1.70;;
46721;SDS011;32455;43.430;23.136;2023-09-30T11:05:09;2.17;;;2.13;;
46721;SDS011;32455;43.430;23.136;2023-09-30T11:07:56;1.27;;;1.27;;
46721;SDS011;32455;43.430;23.136;2023-09-30T11:10:48;1.90;;;1.90;;
46721;SDS011;32455;43.430;23.136;2023-09-30T11:13:38;2.80;;;2.70;;
46721;SDS011;32455;43.430;23.136;2023-09-30T11:16:23;4.22;;;4.03;;
46721;SDS011;32455;43.430;23.136;2023-09-30T11:19:09;2.88;;;2.78;;
46721;SDS011;32455;43.430;23.136;2023-09-30T11:21:55;3.08;;;2.97;;
46721;SDS011;32455;43.430;23.136;2023-09-30T11:24:42;2.10;;;2.10;;
46721;SDS011;32455;43.430;23.136;2023-09-30T11:27:28;3.10;;;3.00;;
46721;SDS011;32455;43.430;23.136;2023-09-30T11:30:14;2.50;;;2.40;;
46721;SDS011;32455;43.430;23.136;2023-09-30T11:32:59;2.67;;;2.58;;
46721;SDS011;32455;43.430;23.136;2023-09-30T11:36:04;2.90;;;2.80;;
46721;SDS011;32455;43.430;23.136;2023-09-30T11:38:51;2.30;;;2.20;;
46721;SDS011;32455;43.430;23.136;2023-09-30T11:41:39;2.55;;;2.45;;
46721;SDS011;32455;43.430;23.136;2023-09-30T11:44:26;2.60;;;2.50;;
46721;SDS011;32455;43.430;23.136;2023-09-30T11:47:14;2.38;;;2.28;;
46721;SDS011;32455;43.430;23.136;2023-09-30T11:50:00;2.00;;;2.00;;
46721;SDS011;32455;43.430;23.136;2023-09-30T11:52:45;2.03;;;2.03;;
46721;SDS011;32455;43.430;23.136;2023-09-30T11:55:31;2.33;;;2.22;;
46721;SDS011;32455;43.430;23.136;2023-09-30T11:58:17;2.50;;;2.40;;
46721;SDS011;32455;43.430;23.136;2023-09-30T12:01:03;2.88;;;2.78;;
46721;SDS011;32455;43.430;23.136;2023-09-30T12:03:51;1.75;;;1.75;;
46721;SDS011;32455;43.430;23.136;2023-09-30T12:06:38;2.30;;;2.22;;
46721;SDS011;32455;43.430;23.136;2023-09-30T12:09:23;2.38;;;2.28;;
46721;SDS011;32455;43.430;23.136;2023-09-30T12:12:12;2.05;;;2.05;;
46721;SDS011;32455;43.430;23.136;2023-09-30T12:14:59;2.38;;;2.28;;
46721;SDS011;32455;43.430;23.136;2023-09-30T12:17:45;2.45;;;2.35;;
46721;SDS011;32455;43.430;23.136;2023-09-30T12:20:30;2.58;;;2.47;;
46721;SDS011;32455;43.430;23.136;2023-09-30T12:23:15;2.47;;;2.38;;
46721;SDS011;32455;43.430;23.136;2023-09-30T12:26:02;2.85;;;2.75;;
46721;SDS011;32455;43.430;23.136;2023-09-30T12:28:52;2.45;;;2.35;;
46721;SDS011;32455;43.430;23.136;2023-09-30T12:31:38;2.47;;;2.38;;
46721;SDS011;32455;43.430;23.136;2023-09-30T12:34:23;1.83;;;1.83;;
46721;SDS011;32455;43.430;23.136;2023-09-30T12:37:10;2.35;;;2.25;;
46721;SDS011;32455;43.430;23.136;2023-09-30T12:39:55;2.58;;;2.47;;
46721;SDS011;32455;43.430;23.136;2023-09-30T12:42:41;2.63;;;2.53;;
46721;SDS011;32455;43.430;23.136;2023-09-30T12:45:27;1.77;;;1.77;;
46721;SDS011;32455;43.430;23.136;2023-09-30T12:48:11;7.25;;;3.78;;
46721;SDS011;32455;43.430;23.136;2023-09-30T12:50:56;2.15;;;2.13;;
46721;SDS011;32455;43.430;23.136;2023-09-30T12:53:41;1.63;;;1.63;;
46721;SDS011;32455;43.430;23.136;2023-09-30T12:56:27;1.70;;;1.70;;
46721;SDS011;32455;43.430;23.136;2023-09-30T12:59:15;1.75;;;1.75;;
46721;SDS011;32455;43.430;23.136;2023-09-30T13:02:02;2.20;;;2.10;;
46721;SDS011;32455;43.430;23.136;2023-09-30T13:04:48;1.90;;;1.90;;
46721;SDS011;32455;43.430;23.136;2023-09-30T13:07:33;1.60;;;1.60;;
46721;SDS011;32455;43.430;23.136;2023-09-30T13:10:19;2.30;;;2.20;;
46721;SDS011;32455;43.430;23.136;2023-09-30T13:13:04;1.65;;;1.65;;
46721;SDS011;32455;43.430;23.136;2023-09-30T13:15:50;2.00;;;2.00;;
46721;SDS011;32455;43.430;23.136;2023-09-30T13:18:35;1.85;;;1.85;;
46721;SDS011;32455;43.430;23.136;2023-09-30T13:21:21;1.52;;;1.52;;
46721;SDS011;32455;43.430;23.136;2023-09-30T13:24:06;1.35;;;1.35;;
46721;SDS011;32455;43.430;23.136;2023-09-30T13:26:54;1.45;;;1.45;;
46721;SDS011;32455;43.430;23.136;2023-09-30T13:29:39;1.75;;;1.75;;
46721;SDS011;32455;43.430;23.136;2023-09-30T13:32:26;1.52;;;1.52;;
46721;SDS011;32455;43.430;23.136;2023-09-30T13:35:12;2.50;;;2.40;;
46721;SDS011;32455;43.430;23.136;2023-09-30T13:37:57;1.38;;;1.38;;
46721;SDS011;32455;43.430;23.136;2023-09-30T13:40:42;1.60;;;1.60;;
46721;SDS011;32455;43.430;23.136;2023-09-30T13:43:29;1.45;;;1.45;;
46721;SDS011;32455;43.430;23.136;2023-09-30T13:46:14;1.70;;;1.70;;
46721;SDS011;32455;43.430;23.136;2023-09-30T13:49:00;1.35;;;1.35;;
46721;SDS011;32455;43.430;23.136;2023-09-30T13:51:45;1.48;;;1.48;;
46721;SDS011;32455;43.430;23.136;2023-09-30T13:54:30;1.27;;;1.27;;
46721;SDS011;32455;43.430;23.136;2023-09-30T13:57:16;1.67;;;1.67;;
46721;SDS011;32455;43.430;23.136;2023-09-30T14:00:02;1.60;;;1.60;;
46721;SDS011;32455;43.430;23.136;2023-09-30T14:02:51;1.27;;;1.27;;
46721;SDS011;32455;43.430;23.136;2023-09-30T14:05:36;1.33;;;1.33;;
46721;SDS011;32455;43.430;23.136;2023-09-30T14:08:23;1.45;;;1.45;;
46721;SDS011;32455;43.430;23.136;2023-09-30T14:11:09;1.67;;;1.67;;
46721;SDS011;32455;43.430;23.136;2023-09-30T14:13:56;1.40;;;1.40;;
46721;SDS011;32455;43.430;23.136;2023-09-30T14:16:50;1.55;;;1.55;;
46721;SDS011;32455;43.430;23.136;2023-09-30T14:19:36;1.30;;;1.30;;
46721;SDS011;32455;43.430;23.136;2023-09-30T14:22:22;1.20;;;1.20;;
46721;SDS011;32455;43.430;23.136;2023-09-30T14:25:07;1.30;;;1.30;;
46721;SDS011;32455;43.430;23.136;2023-09-30T14:27:53;1.48;;;1.48;;
46721;SDS011;32455;43.430;23.136;2023-09-30T14:30:38;1.20;;;1.20;;
46721;SDS011;32455;43.430;23.136;2023-09-30T14:33:23;1.40;;;1.40;;
46721;SDS011;32455;43.430;23.136;2023-09-30T14:36:07;1.33;;;1.33;;
46721;SDS011;32455;43.430;23.136;2023-09-30T14:38:52;1.33;;;1.33;;
46721;SDS011;32455;43.430;23.136;2023-09-30T14:41:37;1.30;;;1.30;;
46721;SDS011;32455;43.430;23.136;2023-09-30T14:44:23;1.00;;;1.00;;
46721;SDS011;32455;43.430;23.136;2023-09-30T14:47:10;1.58;;;1.58;;
46721;SDS011;32455;43.430;23.136;2023-09-30T14:49:55;1.63;;;1.60;;
46721;SDS011;32455;43.430;23.136;2023-09-30T14:52:41;1.45;;;1.45;;
46721;SDS011;32455;43.430;23.136;2023-09-30T14:55:27;1.15;;;1.15;;
46721;SDS011;32455;43.430;23.136;2023-09-30T14:58:12;1.25;;;1.25;;
46721;SDS011;32455;43.430;23.136;2023-09-30T15:00:58;1.15;;;1.15;;
46721;SDS011;32455;43.430;23.136;2023-09-30T15:03:44;1.02;;;1.02;;
46721;SDS011;32455;43.430;23.136;2023-09-30T15:06:29;0.88;;;0.88;;
46721;SDS011;32455;43.430;23.136;2023-09-30T15:09:13;0.85;;;0.85;;
46721;SDS011;32455;43.430;23.136;2023-09-30T15:11:58;1.13;;;1.13;;
46721;SDS011;32455;43.430;23.136;2023-09-30T15:14:42;0.90;;;0.90;;
46721;SDS011;32455;43.430;23.136;2023-09-30T15:17:29;0.80;;;0.80;;
46721;SDS011;32455;43.430;23.136;2023-09-30T15:20:14;1.30;;;1.30;;
46721;SDS011;32455;43.430;23.136;2023-09-30T15:23:01;0.80;;;0.80;;
46721;SDS011;32455;43.430;23.136;2023-09-30T15:25:47;0.80;;;0.80;;
46721;SDS011;32455;43.430;23.136;2023-09-30T15:28:32;0.90;;;0.90;;
46721;SDS011;32455;43.430;23.136;2023-09-30T15:31:16;0.70;;;0.70;;
46721;SDS011;32455;43.430;23.136;2023-09-30T15:34:02;1.10;;;1.10;;
46721;SDS011;32455;43.430;23.136;2023-09-30T15:36:55;0.75;;;0.75;;
46721;SDS011;32455;43.430;23.136;2023-09-30T15:39:43;0.80;;;0.80;;
46721;SDS011;32455;43.430;23.136;2023-09-30T15:42:34;0.80;;;0.80;;
46721;SDS011;32455;43.430;23.136;2023-09-30T15:45:20;0.70;;;0.70;;
46721;SDS011;32455;43.430;23.136;2023-09-30T15:48:06;0.60;;;0.60;;
46721;SDS011;32455;43.430;23.136;2023-09-30T15:50:51;0.75;;;0.75;;
46721;SDS011;32455;43.430;23.136;2023-09-30T15:53:36;0.50;;;0.50;;
46721;SDS011;32455;43.430;23.136;2023-09-30T15:56:23;0.50;;;0.50;;
46721;SDS011;32455;43.430;23.136;2023-09-30T15:59:08;0.60;;;0.60;;
46721;SDS011;32455;43.430;23.136;2023-09-30T16:01:54;0.60;;;0.60;;
46721;SDS011;32455;43.430;23.136;2023-09-30T16:04:39;0.80;;;0.80;;
46721;SDS011;32455;43.430;23.136;2023-09-30T16:07:25;0.70;;;0.70;;
46721;SDS011;32455;43.430;23.136;2023-09-30T16:10:10;0.80;;;0.80;;
46721;SDS011;32455;43.430;23.136;2023-09-30T16:12:56;0.77;;;0.77;;
46721;SDS011;32455;43.430;23.136;2023-09-30T16:15:42;0.90;;;0.90;;
46721;SDS011;32455;43.430;23.136;2023-09-30T16:18:27;0.90;;;0.90;;
46721;SDS011;32455;43.430;23.136;2023-09-30T16:21:13;0.73;;;0.73;;
46721;SDS011;32455;43.430;23.136;2023-09-30T16:23:58;0.70;;;0.70;;
46721;SDS011;32455;43.430;23.136;2023-09-30T16:26:42;0.70;;;0.70;;
46721;SDS011;32455;43.430;23.136;2023-09-30T16:29:28;0.70;;;0.70;;
46721;SDS011;32455;43.430;23.136;2023-09-30T16:32:13;0.85;;;0.85;;
46721;SDS011;32455;43.430;23.136;2023-09-30T16:34:58;0.93;;;0.93;;
46721;SDS011;32455;43.430;23.136;2023-09-30T16:37:42;0.90;;;0.90;;
46721;SDS011;32455;43.430;23.136;2023-09-30T16:40:28;1.02;;;1.02;;
46721;SDS011;32455;43.430;23.136;2023-09-30T16:43:14;1.00;;;1.00;;
46721;SDS011;32455;43.430;23.136;2023-09-30T16:46:00;0.90;;;0.90;;